Time;durP1;ratioP1;P1;durP2;ratioP2;P2;SDS_P1;SDS_P2;PMS_P1;PMS_P2;Temp;Humidity;BMP_temperature;BMP_pressure;BME280_temperature;BME280_humidity;BME280_pressure;Samples;Min_cycle;Max_cycle;Signal;HPM_P1;HPM_P2
2024/04/03 00:00:14;;;;;;;5.50;1.23;;;7.60;99.90;;;;;;5099217;27;20122;-63
2024/04/03 00:03:00;;;;;;;9.40;1.50;;;7.70;99.90;;;;;;5098383;28;20035;-63
2024/04/03 00:05:45;;;;;;;7.80;1.40;;;7.70;99.90;;;;;;5096777;28;20044;-63
2024/04/03 00:08:31;;;;;;;5.68;1.30;;;7.70;99.90;;;;;;5094432;28;20106;-63
2024/04/03 00:11:17;;;;;;;7.25;1.83;;;7.70;99.90;;;;;;5094934;28;20028;-63
2024/04/03 00:14:03;;;;;;;4.70;1.20;;;7.80;99.90;;;;;;5074796;28;20113;-63
2024/04/03 00:16:49;;;;;;;5.85;1.60;;;7.80;99.90;;;;;;5095376;28;20115;-64
2024/04/03 00:19:34;;;;;;;7.90;1.88;;;7.80;99.90;;;;;;5080968;28;20477;-63
2024/04/03 00:22:20;;;;;;;4.22;1.30;;;7.80;99.90;;;;;;5083405;28;20040;-63
2024/04/03 00:25:06;;;;;;;8.15;1.52;;;7.80;99.90;;;;;;5078947;28;20042;-64
2024/04/03 00:27:52;;;;;;;5.78;1.42;;;7.90;99.90;;;;;;5083313;28;20394;-63
2024/04/03 00:30:38;;;;;;;5.40;1.05;;;7.90;99.90;;;;;;5083155;28;20662;-63
2024/04/03 00:33:24;;;;;;;4.13;1.20;;;7.90;99.90;;;;;;5106236;27;20040;-63
2024/04/03 00:36:10;;;;;;;7.57;1.33;;;7.90;99.90;;;;;;5098395;27;20031;-63
2024/04/03 00:38:56;;;;;;;10.02;2.08;;;7.90;99.90;;;;;;5104395;28;20035;-63
2024/04/03 00:41:42;;;;;;;4.07;1.30;;;7.90;99.90;;;;;;5099753;28;20062;-62
2024/04/03 00:44:28;;;;;;;10.65;1.67;;;7.90;99.90;;;;;;5106517;27;20042;-63
2024/04/03 00:47:17;;;;;;;6.18;1.38;;;7.90;99.90;;;;;;5100738;27;20654;-63
2024/04/03 00:50:04;;;;;;;5.20;1.20;;;7.90;99.90;;;;;;5103149;27;20107;-63
2024/04/03 00:52:51;;;;;;;5.57;1.42;;;7.90;99.90;;;;;;5102536;28;20493;-63
2024/04/03 00:55:39;;;;;;;6.97;1.00;;;7.90;99.90;;;;;;5099998;28;20102;-63
2024/04/03 00:58:24;;;;;;;7.30;1.05;;;7.90;99.90;;;;;;5103524;27;20113;-63
2024/04/03 01:01:10;;;;;;;2.47;1.02;;;7.90;99.90;;;;;;5102778;27;20038;-63
2024/04/03 01:03:56;;;;;;;4.70;1.17;;;7.90;99.90;;;;;;5090143;28;20043;-63
2024/04/03 01:06:42;;;;;;;4.03;1.52;;;7.90;99.90;;;;;;5101993;28;20400;-63
2024/04/03 01:09:31;;;;;;;4.60;1.27;;;7.90;99.90;;;;;;5102449;27;20556;-63
2024/04/03 01:12:17;;;;;;;5.30;0.80;;;7.90;99.90;;;;;;5104911;28;20024;-63
2024/04/03 01:15:03;;;;;;;2.42;0.77;;;7.90;99.90;;;;;;5104144;28;20032;-63
2024/04/03 01:17:49;;;;;;;5.00;1.37;;;7.80;99.90;;;;;;5102132;27;20122;-64
2024/04/03 01:20:35;;;;;;;1.30;0.80;;;7.80;99.90;;;;;;5096569;27;20646;-63
2024/04/03 01:23:22;;;;;;;1.92;0.75;;;7.80;99.90;;;;;;5104480;28;20067;-63
2024/04/03 01:26:08;;;;;;;2.47;0.80;;;7.70;99.90;;;;;;5103830;27;20104;-63
2024/04/03 01:28:53;;;;;;;3.60;0.70;;;7.80;99.90;;;;;;5100102;27;20106;-63
2024/04/03 01:31:39;;;;;;;1.33;0.47;;;7.80;99.90;;;;;;5100231;28;20039;-63
2024/04/03 01:34:25;;;;;;;1.45;0.70;;;7.80;99.90;;;;;;5107851;27;20168;-63
2024/04/03 01:37:11;;;;;;;2.58;0.50;;;7.70;99.90;;;;;;5103412;28;20031;-63
2024/04/03 01:39:57;;;;;;;2.30;0.70;;;7.70;99.90;;;;;;5101912;28;20527;-63
2024/04/03 01:42:43;;;;;;;2.00;0.60;;;7.70;99.90;;;;;;5107347;27;20197;-63
2024/04/03 01:45:29;;;;;;;3.08;0.70;;;7.70;99.90;;;;;;5098697;28;20039;-63
2024/04/03 01:48:15;;;;;;;1.88;0.80;;;7.70;99.90;;;;;;5103373;27;20031;-63
2024/04/03 01:51:01;;;;;;;4.70;1.02;;;7.80;99.90;;;;;;5092913;28;20144;-63
2024/04/03 01:53:46;;;;;;;2.35;0.70;;;7.80;99.90;;;;;;5106576;27;20032;-63
2024/04/03 01:56:32;;;;;;;3.40;0.70;;;7.80;99.90;;;;;;5102000;28;20810;-63
2024/04/03 01:59:18;;;;;;;7.47;1.42;;;7.80;99.90;;;;;;5104866;27;20078;-63
2024/04/03 02:02:04;;;;;;;4.38;1.02;;;7.80;99.90;;;;;;5106391;27;20036;-63
2024/04/03 02:04:50;;;;;;;2.58;0.75;;;7.80;99.90;;;;;;5103039;28;20229;-63
2024/04/03 02:07:36;;;;;;;1.30;0.90;;;7.80;99.90;;;;;;5103736;28;20069;-63
2024/04/03 02:10:22;;;;;;;2.95;0.88;;;7.80;99.90;;;;;;5102711;28;20035;-63
2024/04/03 02:13:08;;;;;;;1.90;0.60;;;7.80;99.90;;;;;;5104328;27;20119;-63
2024/04/03 02:15:55;;;;;;;5.15;1.33;;;7.80;99.90;;;;;;5103538;28;20038;-63
2024/04/03 02:18:40;;;;;;;2.15;0.80;;;7.80;99.90;;;;;;5097653;27;20058;-63
2024/04/03 02:21:26;;;;;;;1.95;0.93;;;7.80;99.90;;;;;;5098591;28;20054;-63
2024/04/03 02:24:12;;;;;;;3.85;0.82;;;7.80;99.90;;;;;;5104538;28;20047;-63
2024/04/03 02:26:58;;;;;;;2.35;0.90;;;7.80;99.90;;;;;;5101415;28;20039;-63
2024/04/03 02:29:44;;;;;;;1.75;0.80;;;7.90;99.90;;;;;;5097453;28;20504;-63
2024/04/03 02:32:30;;;;;;;2.22;0.98;;;7.90;99.90;;;;;;5102572;28;20447;-63
2024/04/03 02:35:16;;;;;;;3.10;0.95;;;7.90;99.90;;;;;;5101480;27;20510;-63
2024/04/03 02:38:01;;;;;;;3.85;0.88;;;7.80;99.90;;;;;;5104265;28;20039;-63
2024/04/03 02:40:47;;;;;;;1.92;0.80;;;7.90;99.90;;;;;;5097556;28;20433;-63
2024/04/03 02:43:33;;;;;;;2.60;0.80;;;7.80;99.90;;;;;;5095840;28;20132;-63
2024/04/03 02:46:19;;;;;;;1.55;0.80;;;7.80;99.90;;;;;;5095170;28;20073;-63
2024/04/03 02:49:05;;;;;;;2.75;0.60;;;7.80;99.90;;;;;;5103595;27;20051;-63
2024/04/03 02:51:51;;;;;;;2.42;0.60;;;7.80;99.90;;;;;;5098309;28;20084;-63
2024/04/03 02:54:36;;;;;;;2.33;0.77;;;7.80;99.90;;;;;;5095793;28;20484;-63
2024/04/03 02:57:22;;;;;;;1.33;0.45;;;7.90;99.90;;;;;;5102378;28;20046;-63
2024/04/03 03:00:09;;;;;;;1.38;0.40;;;7.80;99.90;;;;;;5099566;28;20031;-63
2024/04/03 03:02:55;;;;;;;1.23;0.50;;;7.90;99.90;;;;;;5103144;28;20500;-63
2024/04/03 03:05:46;;;;;;;1.00;0.50;;;7.90;99.90;;;;;;5099544;28;20039;-63
2024/04/03 03:08:34;;;;;;;1.08;0.50;;;7.80;99.90;;;;;;5102331;28;20042;-63
2024/04/03 03:11:20;;;;;;;0.93;0.50;;;7.80;99.90;;;;;;5098922;28;20034;-63
2024/04/03 03:14:06;;;;;;;1.80;0.63;;;7.90;99.90;;;;;;5102049;28;20035;-63
2024/04/03 03:16:54;;;;;;;3.97;0.68;;;7.90;99.90;;;;;;5101496;28;20090;-63
2024/04/03 03:19:40;;;;;;;1.70;0.60;;;7.90;99.90;;;;;;5086482;28;20054;-63
2024/04/03 03:22:26;;;;;;;3.17;0.70;;;7.90;99.90;;;;;;5102237;28;20074;-63
2024/04/03 03:25:12;;;;;;;1.75;0.52;;;7.80;99.90;;;;;;5097968;28;20046;-63
2024/04/03 03:27:58;;;;;;;4.85;0.80;;;7.80;99.90;;;;;;5104275;28;20466;-63
2024/04/03 03:30:50;;;;;;;5.72;0.50;;;7.80;99.90;;;;;;5097943;28;20039;-63
2024/04/03 03:33:37;;;;;;;2.92;0.40;;;7.80;99.90;;;;;;5104436;28;20101;-63
2024/04/03 03:36:23;;;;;;;1.95;0.50;;;7.80;99.90;;;;;;5098104;28;20040;-63
2024/04/03 03:39:08;;;;;;;1.90;0.50;;;7.80;99.90;;;;;;5103416;28;20506;-63
2024/04/03 03:41:54;;;;;;;1.15;0.43;;;7.80;99.90;;;;;;5098660;28;20093;-63
2024/04/03 03:44:40;;;;;;;0.57;0.28;;;7.80;99.90;;;;;;5098057;28;20027;-63
2024/04/03 03:47:26;;;;;;;1.25;0.50;;;7.80;99.90;;;;;;5100880;28;20035;-63
2024/04/03 03:53:17;;;;;;;2.05;0.50;;;7.80;99.90;;;;;;5102047;28;20043;-63
2024/04/03 03:56:07;;;;;;;1.50;0.68;;;7.90;99.90;;;;;;5104108;28;20054;-63
2024/04/03 03:58:53;;;;;;;2.25;0.57;;;7.90;99.90;;;;;;5107649;27;20408;-63
2024/04/03 04:01:39;;;;;;;1.33;0.40;;;7.90;99.90;;;;;;5102659;28;20160;-63
2024/04/03 04:04:25;;;;;;;1.17;0.50;;;7.80;99.90;;;;;;5097582;28;20096;-63
2024/04/03 04:07:11;;;;;;;1.33;0.70;;;7.80;99.90;;;;;;5098314;28;20043;-64
2024/04/03 04:09:57;;;;;;;0.80;0.60;;;7.80;99.90;;;;;;5097679;28;20482;-63
2024/04/03 04:12:43;;;;;;;1.77;0.47;;;7.80;99.90;;;;;;5099320;28;20039;-63
2024/04/03 04:15:28;;;;;;;0.77;0.50;;;7.80;99.90;;;;;;5103226;27;20027;-63
2024/04/03 04:18:14;;;;;;;0.47;0.32;;;7.80;99.90;;;;;;5105822;28;20497;-63
2024/04/03 04:21:00;;;;;;;0.85;0.45;;;7.80;99.90;;;;;;5099940;28;20034;-63
2024/04/03 04:23:47;;;;;;;1.55;0.60;;;7.80;99.90;;;;;;5093520;28;20059;-63
2024/04/03 04:26:33;;;;;;;1.10;0.50;;;7.80;99.90;;;;;;5089413;28;20076;-63
2024/04/03 04:29:18;;;;;;;1.23;0.50;;;7.80;99.90;;;;;;5095537;28;20047;-63
2024/04/03 04:32:04;;;;;;;2.05;0.50;;;7.80;99.90;;;;;;5089872;27;20194;-63
2024/04/03 04:34:52;;;;;;;0.70;0.38;;;7.80;99.90;;;;;;5090893;27;20716;-63
2024/04/03 04:37:38;;;;;;;1.38;0.40;;;7.80;99.90;;;;;;5099525;28;20036;-63
2024/04/03 04:40:24;;;;;;;1.15;0.60;;;7.90;99.90;;;;;;5096370;27;20038;-63
2024/04/03 04:43:10;;;;;;;0.73;0.43;;;7.90;99.90;;;;;;5097663;27;20555;-63
2024/04/03 04:46:00;;;;;;;1.27;0.55;;;7.90;99.90;;;;;;5095825;28;20044;-63
2024/04/03 04:48:46;;;;;;;1.75;0.57;;;7.90;99.90;;;;;;5095653;27;20133;-63
2024/04/03 04:51:32;;;;;;;0.90;0.40;;;7.90;99.90;;;;;;5088181;28;20399;-63
2024/04/03 04:54:18;;;;;;;1.73;0.60;;;7.90;99.90;;;;;;5095386;28;20035;-63
2024/04/03 04:57:09;;;;;;;1.77;0.70;;;7.80;99.90;;;;;;5105154;28;20028;-63
2024/04/03 04:59:55;;;;;;;3.53;0.70;;;7.90;99.90;;;;;;5093829;28;20048;-63
2024/04/03 05:02:41;;;;;;;2.33;0.70;;;7.90;99.90;;;;;;5092323;27;20039;-63
2024/04/03 05:05:31;;;;;;;7.15;0.65;;;7.90;99.90;;;;;;5096285;28;20047;-63
2024/04/03 05:08:18;;;;;;;1.10;0.60;;;7.90;99.90;;;;;;5097381;28;20035;-63
2024/04/03 05:11:04;;;;;;;4.15;1.33;;;7.90;99.90;;;;;;5088419;28;20496;-63
2024/04/03 05:13:50;;;;;;;3.65;1.02;;;7.90;99.90;;;;;;5096646;28;20405;-63
2024/04/03 05:16:36;;;;;;;2.30;0.80;;;7.90;99.90;;;;;;5096267;27;20042;-63
2024/04/03 05:19:22;;;;;;;2.20;0.70;;;7.90;99.90;;;;;;5081211;28;20128;-63
2024/04/03 05:22:10;;;;;;;3.27;0.60;;;7.90;99.90;;;;;;5104608;28;20032;-63
2024/04/03 05:24:56;;;;;;;3.10;0.88;;;7.90;99.90;;;;;;5100345;28;20090;-63
2024/04/03 05:27:42;;;;;;;6.78;0.63;;;7.90;99.90;;;;;;5091909;28;20420;-63
2024/04/03 05:30:28;;;;;;;2.10;0.60;;;8.00;99.90;;;;;;5091547;28;20039;-63
2024/04/03 05:33:14;;;;;;;0.95;0.55;;;8.00;99.90;;;;;;5098100;28;20028;-63
2024/04/03 05:36:01;;;;;;;1.13;0.60;;;8.00;99.90;;;;;;5096150;27;20217;-63
2024/04/03 05:38:48;;;;;;;6.43;0.95;;;8.00;99.90;;;;;;5101048;27;20460;-63
2024/04/03 05:41:34;;;;;;;2.35;0.88;;;7.90;99.90;;;;;;5098751;27;20453;-63
2024/04/03 05:44:19;;;;;;;3.55;0.90;;;7.80;99.90;;;;;;5097624;28;20054;-63
2024/04/03 05:47:05;;;;;;;2.05;0.70;;;7.80;99.90;;;;;;5095932;28;20032;-63
2024/04/03 05:49:55;;;;;;;3.33;0.88;;;7.80;99.90;;;;;;5098524;28;20027;-63
2024/04/03 05:52:40;;;;;;;3.30;0.70;;;7.90;99.90;;;;;;5102355;27;20032;-63
2024/04/03 05:55:26;;;;;;;6.03;0.90;;;8.00;99.90;;;;;;5098542;28;20039;-63
2024/04/03 05:58:12;;;;;;;4.57;0.88;;;8.00;99.90;;;;;;5105937;28;20377;-63
2024/04/03 06:00:59;;;;;;;4.47;0.77;;;8.10;99.90;;;;;;5094728;28;20036;-63
2024/04/03 06:03:45;;;;;;;2.58;0.70;;;8.10;99.90;;;;;;5105742;28;20065;-63
2024/04/03 06:06:31;;;;;;;6.60;1.27;;;8.10;99.90;;;;;;5098878;27;20043;-63
2024/04/03 06:09:17;;;;;;;1.70;0.70;;;8.20;99.90;;;;;;5093121;28;20432;-63
2024/04/03 06:12:03;;;;;;;1.60;0.70;;;8.10;99.90;;;;;;5101668;28;20027;-63
2024/04/03 06:14:49;;;;;;;2.33;0.60;;;8.20;99.90;;;;;;5104957;27;20067;-63
2024/04/03 06:17:35;;;;;;;3.08;0.70;;;8.20;99.90;;;;;;5095658;28;20108;-63
2024/04/03 06:20:21;;;;;;;5.47;1.05;;;8.20;99.90;;;;;;5100538;27;20054;-63
2024/04/03 06:23:10;;;;;;;3.78;1.20;;;8.30;99.90;;;;;;5094295;27;20047;-63
2024/04/03 06:25:56;;;;;;;2.78;0.70;;;8.40;99.90;;;;;;5102891;28;20036;-63
2024/04/03 06:28:42;;;;;;;3.88;1.00;;;8.40;99.90;;;;;;5095973;28;20059;-63
2024/04/03 06:31:29;;;;;;;2.78;0.90;;;8.40;99.90;;;;;;5098989;27;20122;-63
2024/04/03 06:34:15;;;;;;;2.75;0.68;;;8.50;99.90;;;;;;5096211;28;20032;-63
2024/04/03 06:37:00;;;;;;;3.60;0.95;;;8.50;99.90;;;;;;5104120;28;20035;-63
2024/04/03 06:39:46;;;;;;;1.65;0.80;;;8.50;99.90;;;;;;5100582;28;20027;-63
2024/04/03 06:42:32;;;;;;;1.40;0.87;;;8.50;99.90;;;;;;5096481;28;20586;-63
2024/04/03 06:45:18;;;;;;;1.25;0.85;;;8.60;99.90;;;;;;5099322;28;20336;-63
2024/04/03 06:48:04;;;;;;;1.83;0.90;;;8.60;99.90;;;;;;5105147;28;20039;-63
2024/04/03 06:50:52;;;;;;;3.50;1.20;;;8.60;99.90;;;;;;5092244;28;20023;-64
2024/04/03 06:53:38;;;;;;;1.90;1.20;;;8.60;99.90;;;;;;5103583;28;20274;-64
2024/04/03 06:56:24;;;;;;;3.88;1.10;;;8.60;99.90;;;;;;5100477;27;20035;-64
2024/04/03 06:59:10;;;;;;;2.35;0.73;;;8.60;99.90;;;;;;5101656;28;20092;-65
2024/04/03 07:01:57;;;;;;;2.72;1.02;;;8.60;99.90;;;;;;5094995;27;20035;-64
2024/04/03 07:04:43;;;;;;;1.17;0.77;;;8.70;99.90;;;;;;5107799;27;20509;-64
2024/04/03 07:07:28;;;;;;;2.22;0.63;;;8.80;99.90;;;;;;5103451;28;20052;-64
2024/04/03 07:10:14;;;;;;;0.77;0.50;;;8.90;99.90;;;;;;5096613;28;20032;-64
2024/04/03 07:13:02;;;;;;;2.95;1.00;;;8.90;99.90;;;;;;5109940;28;20039;-64
2024/04/03 07:15:48;;;;;;;3.53;0.90;;;8.90;99.90;;;;;;5095485;28;20458;-64
2024/04/03 07:18:37;;;;;;;5.07;0.90;;;9.00;99.90;;;;;;5085108;28;20039;-64
2024/04/03 07:21:24;;;;;;;4.28;1.17;;;8.90;99.90;;;;;;5089523;28;20100;-63
2024/04/03 07:24:10;;;;;;;4.82;1.42;;;8.90;99.90;;;;;;5095382;28;22131;-63
2024/04/03 07:26:56;;;;;;;1.90;0.90;;;8.80;99.90;;;;;;5091778;28;20036;-65
2024/04/03 07:29:42;;;;;;;4.45;1.52;;;8.80;99.90;;;;;;5094375;27;20035;-63
2024/04/03 07:32:28;;;;;;;2.95;1.08;;;8.70;99.90;;;;;;5102063;28;20040;-63
2024/04/03 07:35:14;;;;;;;3.20;1.00;;;8.70;99.90;;;;;;5099056;28;20028;-63
2024/04/03 07:38:00;;;;;;;7.28;1.08;;;8.70;99.90;;;;;;5106931;28;20036;-63
2024/04/03 07:40:54;;;;;;;4.70;1.00;;;8.70;99.90;;;;;;5101585;28;20496;-63
2024/04/03 07:43:40;;;;;;;5.55;1.15;;;8.70;99.90;;;;;;5107758;28;20057;-63
2024/04/03 07:46:27;;;;;;;3.35;1.10;;;8.80;99.90;;;;;;5107831;27;20527;-63
2024/04/03 07:49:12;;;;;;;7.50;1.50;;;8.90;99.90;;;;;;5106802;28;20027;-63
2024/04/03 07:51:58;;;;;;;3.78;1.27;;;9.00;99.90;;;;;;5115437;27;20399;-63
2024/04/03 07:54:44;;;;;;;6.57;1.23;;;9.00;99.90;;;;;;5095392;27;20085;-63
2024/04/03 07:57:30;;;;;;;6.43;1.33;;;9.00;99.90;;;;;;5095974;27;20035;-63
2024/04/03 08:00:16;;;;;;;6.55;0.90;;;9.10;99.90;;;;;;5107739;27;20135;-63
2024/04/03 08:03:02;;;;;;;3.97;1.05;;;9.10;99.90;;;;;;5113918;27;20084;-63
2024/04/03 08:05:51;;;;;;;6.13;1.37;;;9.10;99.90;;;;;;5095554;27;20047;-63
2024/04/03 08:08:37;;;;;;;3.83;0.95;;;9.10;99.90;;;;;;5112729;27;20104;-63
2024/04/03 08:11:23;;;;;;;4.20;1.08;;;9.00;99.90;;;;;;5100857;28;20028;-63
2024/04/03 08:14:09;;;;;;;3.53;1.42;;;9.10;99.90;;;;;;5109318;27;20046;-63
2024/04/03 08:16:55;;;;;;;4.40;1.10;;;9.20;99.90;;;;;;5112331;27;20079;-63
2024/04/03 08:19:41;;;;;;;3.13;0.90;;;9.30;99.90;;;;;;5115183;27;20296;-63
2024/04/03 08:22:27;;;;;;;4.05;0.98;;;9.40;99.90;;;;;;5101841;27;20839;-63
2024/04/03 08:25:12;;;;;;;2.75;1.13;;;9.60;99.90;;;;;;5102229;27;20376;-63
2024/04/03 08:27:58;;;;;;;2.40;0.70;;;9.50;99.90;;;;;;5101927;28;20078;-63
2024/04/03 08:30:44;;;;;;;2.83;0.83;;;9.60;99.90;;;;;;5099820;27;20046;-63
2024/04/03 08:33:30;;;;;;;4.72;1.13;;;9.60;99.90;;;;;;5103447;28;20195;-63
2024/04/03 08:36:16;;;;;;;4.85;1.00;;;9.60;99.90;;;;;;5101764;28;20668;-63
2024/04/03 08:39:02;;;;;;;3.78;0.85;;;9.60;99.90;;;;;;5105490;27;20027;-63
2024/04/03 08:41:49;;;;;;;2.55;0.80;;;9.60;99.90;;;;;;5100486;28;20107;-63
2024/04/03 08:44:35;;;;;;;6.35;0.73;;;9.80;99.90;;;;;;5103020;28;20093;-63
2024/04/03 08:47:21;;;;;;;2.50;1.10;;;9.80;99.90;;;;;;5104072;28;20129;-63
2024/04/03 08:50:07;;;;;;;4.93;1.17;;;10.00;99.90;;;;;;5101736;28;20396;-63
2024/04/03 08:52:54;;;;;;;3.20;0.80;;;10.20;99.90;;;;;;5098230;28;20038;-63
2024/04/03 08:55:41;;;;;;;4.10;1.30;;;10.10;99.90;;;;;;5101951;28;20040;-63
2024/04/03 08:58:27;;;;;;;4.55;0.70;;;10.10;99.90;;;;;;5106139;27;20039;-63
2024/04/03 09:01:12;;;;;;;2.75;0.52;;;10.20;99.90;;;;;;5096788;27;20400;-63
2024/04/03 09:03:58;;;;;;;2.45;1.00;;;10.10;99.90;;;;;;5109442;27;20054;-63
2024/04/03 09:06:45;;;;;;;2.30;0.65;;;9.90;99.90;;;;;;5098102;28;20035;-63
2024/04/03 09:09:32;;;;;;;1.40;0.45;;;9.90;99.90;;;;;;5105350;28;20067;-63
2024/04/03 09:12:23;;;;;;;;;;;9.90;99.90;;;;;;5103027;28;20035;-63
2024/04/03 09:15:10;;;;;;;3.22;0.88;;;10.00;99.90;;;;;;5097526;28;19919;-63
2024/04/03 09:18:00;;;;;;;5.10;0.90;;;10.00;99.90;;;;;;5099751;27;20027;-63
2024/04/03 09:20:53;;;;;;;3.20;0.60;;;10.00;99.90;;;;;;5096219;28;20484;-63
2024/04/03 09:23:38;;;;;;;3.30;0.60;;;9.90;99.90;;;;;;5104583;28;20114;-63
2024/04/03 09:26:25;;;;;;;0.38;0.35;;;9.90;99.90;;;;;;5099774;27;20037;-63
2024/04/03 09:29:15;;;;;;;2.20;0.60;;;9.90;99.90;;;;;;5103383;28;20108;-63
2024/04/03 09:32:02;;;;;;;1.75;0.50;;;9.80;99.90;;;;;;5103762;28;20092;-63
2024/04/03 09:34:50;;;;;;;5.25;0.80;;;9.80;99.90;;;;;;5102783;28;20035;-63
2024/04/03 09:37:36;;;;;;;1.15;0.40;;;9.80;99.90;;;;;;5103368;28;20035;-63
2024/04/03 09:40:31;;;;;;;1.55;0.50;;;9.90;99.90;;;;;;5098514;28;20036;-63
2024/04/03 09:43:23;;;;;;;1.55;0.50;;;10.00;99.90;;;;;;5098426;28;20480;-63
2024/04/03 09:46:12;;;;;;;3.15;1.02;;;10.10;99.90;;;;;;5095741;28;20447;-63
2024/04/03 09:48:59;;;;;;;4.13;0.60;;;10.00;99.90;;;;;;5101927;28;20045;-63
2024/04/03 09:51:45;;;;;;;0.93;0.43;;;9.80;99.90;;;;;;5085855;28;20271;-63
2024/04/03 09:54:31;;;;;;;2.10;0.73;;;9.70;99.90;;;;;;5100021;28;20096;-63
2024/04/03 09:57:17;;;;;;;1.02;0.60;;;9.70;99.90;;;;;;5104272;27;20063;-63
2024/04/03 10:00:03;;;;;;;0.37;0.33;;;9.70;99.90;;;;;;5094852;28;20514;-63
2024/04/03 10:02:49;;;;;;;0.95;0.57;;;9.70;99.90;;;;;;5103612;28;20048;-63
2024/04/03 10:05:40;;;;;;;2.78;0.60;;;9.80;99.90;;;;;;5092291;28;20041;-63
2024/04/03 10:08:33;;;;;;;3.22;0.50;;;9.80;99.90;;;;;;5103066;28;20027;-63
2024/04/03 10:11:19;;;;;;;0.82;0.40;;;9.80;99.90;;;;;;5101835;28;20031;-63
2024/04/03 10:14:05;;;;;;;1.37;0.40;;;9.70;99.90;;;;;;5100575;28;20024;-63
2024/04/03 10:16:50;;;;;;;4.05;0.70;;;9.70;99.90;;;;;;5102843;28;20331;-63
2024/04/03 10:19:43;;;;;;;3.28;0.75;;;9.80;99.90;;;;;;5100993;27;20043;-63
2024/04/03 10:22:30;;;;;;;1.30;0.50;;;9.90;99.90;;;;;;5089048;28;20472;-63
2024/04/03 10:25:17;;;;;;;;;;;10.00;99.90;;;;;;5098614;28;20492;-63
2024/04/03 10:28:11;;;;;;;2.63;0.50;;;9.80;99.90;;;;;;5102880;28;20000;-63
2024/04/03 10:30:57;;;;;;;1.80;0.50;;;9.90;99.90;;;;;;5101008;28;20046;-63
2024/04/03 10:33:43;;;;;;;1.52;0.32;;;10.00;99.90;;;;;;5100138;28;20111;-63
2024/04/03 10:36:28;;;;;;;0.90;0.50;;;10.10;99.90;;;;;;5102770;28;20512;-63
2024/04/03 10:39:15;;;;;;;2.38;0.80;;;10.00;99.90;;;;;;5100007;28;20046;-63
2024/04/03 10:42:02;;;;;;;1.08;0.40;;;10.00;99.90;;;;;;5102888;28;20062;-63
2024/04/03 10:44:47;;;;;;;3.80;0.40;;;10.00;99.90;;;;;;5097458;28;20032;-63
2024/04/03 10:47:34;;;;;;;0.70;0.40;;;10.00;99.90;;;;;;5103898;28;20034;-63
2024/04/03 10:50:20;;;;;;;1.27;0.40;;;9.90;99.90;;;;;;5100524;28;20098;-63
2024/04/03 10:53:09;;;;;;;1.77;0.50;;;9.80;99.90;;;;;;5103415;28;20043;-63
2024/04/03 10:55:54;;;;;;;1.88;0.55;;;9.70;99.90;;;;;;5102575;28;20039;-63
2024/04/03 10:58:41;;;;;;;1.70;0.52;;;9.70;99.90;;;;;;5102305;28;20555;-63
2024/04/03 11:01:29;;;;;;;2.40;0.57;;;9.60;99.90;;;;;;5098776;28;21069;-63
2024/04/03 11:04:15;;;;;;;3.85;0.50;;;9.60;99.90;;;;;;5101075;28;20097;-63
2024/04/03 11:07:01;;;;;;;1.10;0.60;;;9.60;99.90;;;;;;5102975;28;20067;-63
2024/04/03 11:09:48;;;;;;;0.93;0.55;;;9.60;99.90;;;;;;5096705;28;20118;-63
2024/04/03 11:12:34;;;;;;;0.98;0.30;;;9.70;99.90;;;;;;5102046;28;20648;-63
2024/04/03 11:15:23;;;;;;;0.77;0.40;;;9.70;99.90;;;;;;5098523;28;20035;-63
2024/04/03 11:18:09;;;;;;;1.23;0.40;;;9.50;99.90;;;;;;5100325;28;20097;-63
2024/04/03 11:20:54;;;;;;;4.13;0.80;;;9.40;99.90;;;;;;5104822;28;20119;-63
2024/04/03 11:23:40;;;;;;;1.33;0.60;;;9.50;99.90;;;;;;5101620;28;20093;-63
2024/04/03 11:26:26;;;;;;;1.75;0.40;;;9.50;99.90;;;;;;5100328;28;20039;-63
2024/04/03 11:29:31;;;;;;;1.75;0.50;;;9.50;99.90;;;;;;5096359;28;20024;-63
2024/04/03 11:32:17;;;;;;;0.93;0.40;;;9.60;99.90;;;;;;5104660;28;20032;-63
2024/04/03 11:35:04;;;;;;;0.63;0.45;;;9.50;99.90;;;;;;5100217;28;20445;-63
2024/04/03 11:37:50;;;;;;;1.80;0.68;;;9.50;99.90;;;;;;5097758;28;20116;-63
2024/04/03 11:40:37;;;;;;;1.23;0.30;;;9.50;99.90;;;;;;5096487;28;20039;-63
2024/04/03 11:43:23;;;;;;;0.60;0.30;;;9.60;99.90;;;;;;5101200;28;20480;-63
2024/04/03 11:46:09;;;;;;;1.30;0.50;;;9.60;99.90;;;;;;5100875;28;20042;-63
2024/04/03 11:48:59;;;;;;;0.82;0.30;;;9.60;99.90;;;;;;5096162;28;20036;-63
2024/04/03 11:51:46;;;;;;;1.98;0.40;;;9.70;99.90;;;;;;5100077;28;20115;-63
2024/04/03 11:54:32;;;;;;;5.10;0.63;;;9.90;99.90;;;;;;5096853;28;20031;-63
2024/04/03 11:57:18;;;;;;;2.05;0.40;;;10.10;99.90;;;;;;5099710;28;20028;-63
2024/04/03 12:00:07;;;;;;;1.20;0.50;;;10.20;99.90;;;;;;5092111;28;20385;-63
2024/04/03 12:02:55;;;;;;;1.33;0.35;;;10.20;99.90;;;;;;5095972;28;20035;-63
2024/04/03 12:05:42;;;;;;;0.95;0.30;;;10.20;99.90;;;;;;5093302;28;20035;-63
2024/04/03 12:08:28;;;;;;;0.65;0.40;;;10.10;99.90;;;;;;5091554;28;20035;-63
2024/04/03 12:11:14;;;;;;;1.48;0.40;;;10.10;99.90;;;;;;5092946;28;20040;-63
2024/04/03 12:14:02;;;;;;;0.60;0.40;;;10.10;99.90;;;;;;5099248;28;20039;-63
2024/04/03 12:16:52;;;;;;;1.42;0.60;;;10.00;99.90;;;;;;5100081;27;20057;-63
2024/04/03 12:22:42;;;;;;;1.40;0.30;;;10.00;99.90;;;;;;5105651;28;20118;-63
2024/04/03 12:25:28;;;;;;;1.33;0.30;;;10.00;99.90;;;;;;5095390;28;20039;-63
2024/04/03 12:28:14;;;;;;;0.60;0.32;;;10.10;99.90;;;;;;5100734;28;20036;-63
2024/04/03 12:31:00;;;;;;;0.63;0.30;;;10.10;99.90;;;;;;5095484;28;20036;-63
2024/04/03 12:33:46;;;;;;;1.85;0.40;;;10.10;99.90;;;;;;5097636;28;20081;-63
2024/04/03 12:36:32;;;;;;;1.02;0.30;;;10.20;99.90;;;;;;5102223;28;20039;-63
2024/04/03 12:39:18;;;;;;;1.55;0.52;;;10.40;99.90;;;;;;5103452;28;20034;-63
2024/04/03 12:42:04;;;;;;;1.25;0.40;;;10.50;99.90;;;;;;5100828;28;20096;-63
2024/04/03 12:44:50;;;;;;;0.40;0.40;;;10.60;99.90;;;;;;5097519;28;20480;-63
2024/04/03 12:47:36;;;;;;;1.08;0.55;;;10.40;99.90;;;;;;5100909;28;20038;-63
2024/04/03 12:50:21;;;;;;;0.50;0.30;;;10.40;99.90;;;;;;5102026;28;20036;-63
2024/04/03 12:53:07;;;;;;;0.68;0.20;;;10.40;99.90;;;;;;5100855;27;20032;-63
2024/04/03 12:55:54;;;;;;;1.35;0.40;;;10.30;99.90;;;;;;5104084;28;20035;-63
2024/04/03 12:58:40;;;;;;;1.23;0.57;;;10.10;99.90;;;;;;5090062;28;20528;-63
2024/04/03 13:01:26;;;;;;;0.80;0.30;;;10.10;99.90;;;;;;5105782;27;20539;-63
2024/04/03 13:04:12;;;;;;;0.55;0.40;;;10.20;99.90;;;;;;5101215;28;20306;-63
2024/04/03 13:06:58;;;;;;;2.60;0.47;;;10.30;99.90;;;;;;5104076;28;20035;-63
2024/04/03 13:09:44;;;;;;;0.90;0.40;;;10.20;99.90;;;;;;5096692;28;20654;-63
2024/04/03 13:12:30;;;;;;;0.85;0.25;;;10.40;99.90;;;;;;5101128;28;20431;-63
2024/04/03 13:15:16;;;;;;;0.60;0.30;;;10.40;99.90;;;;;;5100250;27;20031;-63
2024/04/03 13:18:03;;;;;;;1.80;0.37;;;10.20;99.90;;;;;;5103917;28;20119;-63
2024/04/03 13:20:49;;;;;;;0.88;0.30;;;10.20;99.90;;;;;;5104141;27;20515;-63
2024/04/03 13:23:35;;;;;;;1.38;0.40;;;10.20;99.90;;;;;;5105698;27;20039;-63
2024/04/03 13:26:21;;;;;;;0.30;0.30;;;10.30;99.90;;;;;;5101027;28;20028;-63
2024/04/03 13:29:07;;;;;;;1.13;0.30;;;10.40;99.90;;;;;;5102305;28;20031;-63
2024/04/03 13:31:52;;;;;;;1.65;0.30;;;10.50;99.90;;;;;;5103132;27;20089;-63
2024/04/03 13:34:38;;;;;;;0.50;0.30;;;10.60;99.90;;;;;;5089783;28;20093;-63
2024/04/03 13:37:24;;;;;;;1.77;0.25;;;10.60;99.90;;;;;;5104596;28;20100;-63
2024/04/03 13:40:10;;;;;;;0.55;0.30;;;10.50;99.90;;;;;;5097786;28;20028;-63
2024/04/03 13:42:56;;;;;;;0.53;0.30;;;10.60;99.90;;;;;;5101334;28;20463;-63
2024/04/03 13:45:42;;;;;;;0.28;0.22;;;10.60;99.90;;;;;;5098747;28;20368;-63
2024/04/03 13:48:28;;;;;;;1.55;0.30;;;10.60;99.90;;;;;;5101767;27;20040;-63
2024/04/03 13:51:14;;;;;;;1.50;0.40;;;10.60;99.90;;;;;;5102731;27;20040;-63
2024/04/03 13:54:01;;;;;;;0.70;0.40;;;10.70;99.90;;;;;;5099797;28;20024;-63
2024/04/03 13:56:47;;;;;;;0.77;0.32;;;10.60;99.90;;;;;;5094232;28;20529;-63
2024/04/03 13:59:33;;;;;;;2.65;0.40;;;10.40;99.90;;;;;;5099247;28;20465;-63
2024/04/03 14:02:19;;;;;;;2.17;0.20;;;10.50;99.90;;;;;;5100969;28;20123;-63
2024/04/03 14:05:05;;;;;;;0.82;0.30;;;10.40;99.90;;;;;;5096604;28;20028;-63
2024/04/03 14:07:51;;;;;;;0.67;0.30;;;10.30;99.90;;;;;;5100950;27;20027;-63
2024/04/03 14:10:38;;;;;;;1.10;0.38;;;10.10;99.90;;;;;;5098675;28;20388;-63
2024/04/03 14:13:25;;;;;;;0.75;0.30;;;10.20;99.90;;;;;;5099145;28;20063;-63
2024/04/03 14:16:10;;;;;;;0.80;0.40;;;10.20;99.90;;;;;;5096914;28;20047;-63
2024/04/03 14:18:56;;;;;;;1.33;0.30;;;10.20;99.90;;;;;;5095140;28;20073;-63
2024/04/03 14:21:42;;;;;;;0.40;0.22;;;10.20;99.90;;;;;;5100427;28;20034;-63
2024/04/03 14:24:28;;;;;;;0.40;0.20;;;10.20;99.90;;;;;;5103482;28;20050;-63
2024/04/03 14:27:14;;;;;;;0.30;0.20;;;10.20;99.90;;;;;;5098702;28;20507;-63
2024/04/03 14:30:00;;;;;;;0.35;0.20;;;10.20;99.90;;;;;;5098770;27;20405;-63
2024/04/03 14:32:46;;;;;;;0.93;0.40;;;10.10;99.90;;;;;;5081690;28;20046;-63
2024/04/03 14:35:32;;;;;;;1.35;0.25;;;10.00;99.90;;;;;;5086966;28;20036;-63
2024/04/03 14:38:21;;;;;;;0.63;0.30;;;10.00;99.90;;;;;;5086603;28;20469;-63
2024/04/03 14:41:08;;;;;;;0.22;0.20;;;10.10;99.90;;;;;;5084855;28;20058;-63